Terminal Aerodrome Forecast
Issued by NWS

Home | Current Version | Previous Version | Text Only | Print | Product List | Glossary On
Versions: 1 2 3 4 5 6 7 8 9 10 11 12 13 14 15 16 17 18 19 20 21 22 23 24 25 26
000
FTUS46 KMTR 191720
TAFSFO
TAF
KSFO 191720Z 1918/2024 28014KT P6SM FEW010 FEW200
     FM192100 28021G27KT P6SM FEW025
     FM200400 28012KT P6SM FEW020
     FM200900 28007KT P6SM FEW022
     FM201700 02005KT P6SM FEW012
     FM202100 29015KT P6SM FEW012=

USA.gov is the U.S. government's official web portal to all federal, state and local government web resources and services.